Time;durP1;ratioP1;P1;durP2;ratioP2;P2;SDS_P1;SDS_P2;PMS_P1;PMS_P2;Temp;Humidity;BMP_temperature;BMP_pressure;BME280_temperature;BME280_humidity;BME280_pressure;Samples;Min_cycle;Max_cycle;Signal;HPM_P1;HPM_P2
2022/03/23 00:01:09;;;;;;;14.05;7.05;;;20.10;55.40;;;;;;4912042;28;88784;-69
2022/03/23 00:03:36;;;;;;;9.63;6.63;;;20.20;55.40;;;;;;4912350;28;87017;-69
2022/03/23 00:06:02;;;;;;;9.65;6.90;;;20.10;56.10;;;;;;4910623;28;88008;-69
2022/03/23 00:08:28;;;;;;;13.48;7.82;;;20.20;55.50;;;;;;4908206;28;90937;-69
2022/03/23 00:10:54;;;;;;;11.60;7.00;;;20.10;55.30;;;;;;4901233;28;89965;-70
2022/03/23 00:13:19;;;;;;;11.77;7.32;;;20.10;55.50;;;;;;4911139;28;87835;-70
2022/03/23 00:15:45;;;;;;;13.07;7.55;;;20.10;55.30;;;;;;4911242;28;86967;-69
2022/03/23 00:18:12;;;;;;;12.05;7.53;;;20.10;55.30;;;;;;4911004;28;88126;-70
2022/03/23 00:20:39;;;;;;;7.95;6.53;;;20.10;55.30;;;;;;4910913;28;87897;-68
2022/03/23 00:23:05;;;;;;;11.02;7.20;;;20.10;55.30;;;;;;4913745;28;88878;-70
2022/03/23 00:25:31;;;;;;;12.07;7.45;;;20.10;55.30;;;;;;4912671;28;88270;-68
2022/03/23 00:27:56;;;;;;;9.52;7.47;;;20.10;55.20;;;;;;4907186;28;90213;-71
2022/03/23 00:30:23;;;;;;;10.30;7.18;;;20.10;55.20;;;;;;4914338;28;87876;-72
2022/03/23 00:32:49;;;;;;;8.93;6.93;;;20.10;55.80;;;;;;4915519;28;87442;-69
2022/03/23 00:35:15;;;;;;;9.45;7.00;;;20.10;55.10;;;;;;4909276;28;89942;-71
2022/03/23 00:37:40;;;;;;;9.30;6.45;;;20.10;55.00;;;;;;4919080;28;88029;-68
2022/03/23 00:40:07;;;;;;;9.00;6.72;;;20.00;55.10;;;;;;4915252;28;87858;-70
2022/03/23 00:42:33;;;;;;;11.80;7.40;;;20.10;55.10;;;;;;4909880;28;87547;-72
2022/03/23 00:44:58;;;;;;;10.10;6.88;;;20.00;55.00;;;;;;4910743;28;87654;-68
2022/03/23 00:47:24;;;;;;;10.75;7.40;;;20.10;55.00;;;;;;4922928;28;89388;-72
2022/03/23 00:49:49;;;;;;;9.43;6.93;;;20.00;54.90;;;;;;4912852;28;88048;-68
2022/03/23 00:52:15;;;;;;;9.82;7.25;;;20.00;54.90;;;;;;4913329;28;87629;-68
2022/03/23 00:54:41;;;;;;;11.77;7.18;;;20.00;54.80;;;;;;4919974;28;87533;-68
2022/03/23 00:57:07;;;;;;;11.15;6.70;;;20.00;54.90;;;;;;4919983;28;87492;-68
2022/03/23 00:59:34;;;;;;;11.02;7.15;;;20.00;55.00;;;;;;4913417;28;88200;-68
2022/03/23 01:01:59;;;;;;;9.18;6.70;;;20.00;55.10;;;;;;4914058;28;87358;-69
2022/03/23 01:04:25;;;;;;;10.50;6.90;;;20.00;54.90;;;;;;4913846;28;86812;-72
2022/03/23 01:06:54;;;;;;;10.50;7.18;;;20.00;54.80;;;;;;4912802;28;88280;-68
2022/03/23 01:09:26;;;;;;;9.52;6.93;;;20.00;54.80;;;;;;4912376;28;87928;-73
2022/03/23 01:11:55;;;;;;;9.65;6.68;;;20.00;54.80;;;;;;4912500;28;88108;-71
2022/03/23 01:14:23;;;;;;;11.48;7.10;;;20.00;54.80;;;;;;4912209;28;87086;-70
2022/03/23 01:16:52;;;;;;;10.85;7.30;;;20.00;54.80;;;;;;4913609;28;88014;-68
2022/03/23 01:19:22;;;;;;;9.05;6.45;;;20.00;54.80;;;;;;4912408;28;90960;-69
2022/03/23 01:21:48;;;;;;;10.00;7.07;;;20.00;54.90;;;;;;4918818;28;87930;-68
2022/03/23 01:24:14;;;;;;;10.00;6.78;;;19.90;54.20;;;;;;4920185;28;88040;-71
2022/03/23 01:26:39;;;;;;;9.38;7.03;;;19.90;54.20;;;;;;4913217;28;88675;-69
2022/03/23 01:29:05;;;;;;;9.43;7.40;;;19.90;54.20;;;;;;4921763;28;88841;-70
2022/03/23 01:31:31;;;;;;;10.20;7.18;;;20.00;54.30;;;;;;4913219;28;87541;-68
2022/03/23 01:33:59;;;;;;;9.20;6.97;;;19.90;54.20;;;;;;4913218;28;87894;-70
2022/03/23 01:36:29;;;;;;;10.30;7.00;;;19.90;54.20;;;;;;4895358;28;92103;-68
2022/03/23 01:38:55;;;;;;;10.07;7.15;;;19.90;54.30;;;;;;4912643;28;88725;-68
2022/03/23 01:41:21;;;;;;;9.95;7.00;;;19.90;54.20;;;;;;4929806;28;87540;-68
2022/03/23 01:43:47;;;;;;;9.20;6.93;;;19.90;54.10;;;;;;4914735;28;87921;-68
2022/03/23 01:46:18;;;;;;;10.93;7.35;;;19.90;54.20;;;;;;4912443;28;87957;-68
2022/03/23 01:48:45;;;;;;;9.63;7.03;;;19.90;54.20;;;;;;4903115;28;90691;-69
2022/03/23 01:51:11;;;;;;;9.00;6.80;;;19.90;54.10;;;;;;4911670;28;87756;-69
2022/03/23 01:53:38;;;;;;;8.30;6.40;;;19.90;54.10;;;;;;4913225;28;87112;-69
2022/03/23 01:56:04;;;;;;;9.32;7.13;;;19.90;54.10;;;;;;4928010;28;88182;-67
2022/03/23 01:58:30;;;;;;;8.85;6.53;;;19.90;54.20;;;;;;4912994;28;88060;-70
2022/03/23 02:00:56;;;;;;;9.55;6.70;;;19.90;54.00;;;;;;4915708;28;87960;-68
2022/03/23 02:03:22;;;;;;;8.13;6.20;;;19.90;54.10;;;;;;4919718;28;87704;-69
2022/03/23 02:05:48;;;;;;;10.10;7.50;;;19.90;54.10;;;;;;4912616;28;87433;-70
2022/03/23 02:08:15;;;;;;;8.90;7.07;;;19.90;54.00;;;;;;4913911;28;91426;-70
2022/03/23 02:10:41;;;;;;;9.45;6.57;;;19.80;54.00;;;;;;4926773;28;87651;-69
2022/03/23 02:13:09;;;;;;;9.57;6.55;;;19.80;54.10;;;;;;4919109;28;88077;-73
2022/03/23 02:15:35;;;;;;;8.50;6.35;;;19.80;54.10;;;;;;4914861;28;87877;-69
2022/03/23 02:18:01;;;;;;;9.63;7.32;;;19.80;54.20;;;;;;4912950;28;88360;-68
2022/03/23 02:20:26;;;;;;;8.45;6.75;;;19.80;54.00;;;;;;4912293;28;87051;-72
2022/03/23 02:22:52;;;;;;;10.15;6.72;;;19.80;54.10;;;;;;4912099;28;87622;-69
2022/03/23 02:25:22;;;;;;;8.90;6.97;;;19.80;54.10;;;;;;4911757;28;88256;-68
2022/03/23 02:27:49;;;;;;;8.80;6.65;;;19.80;54.10;;;;;;4911560;28;88319;-69
2022/03/23 02:30:15;;;;;;;8.30;6.35;;;19.80;54.10;;;;;;4912498;28;86985;-70
2022/03/23 02:32:41;;;;;;;9.15;6.60;;;19.80;54.20;;;;;;4912176;28;87933;-68
2022/03/23 02:35:08;;;;;;;8.02;6.20;;;19.80;54.10;;;;;;4912206;28;88077;-68
2022/03/23 02:37:35;;;;;;;8.05;6.35;;;19.80;54.20;;;;;;4915136;28;91463;-72
2022/03/23 02:40:01;;;;;;;9.93;6.47;;;19.80;54.00;;;;;;4914880;28;87370;-68
2022/03/23 02:42:26;;;;;;;13.70;7.35;;;19.80;54.80;;;;;;4899086;28;89772;-68
2022/03/23 02:44:52;;;;;;;9.60;6.60;;;19.80;54.00;;;;;;4914048;28;88007;-70
2022/03/23 02:47:18;;;;;;;8.13;6.50;;;19.80;54.00;;;;;;4919636;28;89061;-70
2022/03/23 02:49:44;;;;;;;9.93;7.45;;;19.70;54.00;;;;;;4911477;28;88763;-69
2022/03/23 02:52:10;;;;;;;8.60;6.50;;;19.80;54.00;;;;;;4910932;28;87824;-68
2022/03/23 03:03:08;;;;;;;7.90;6.68;;;19.70;53.80;;;;;;4923984;28;87520;-68
2022/03/23 03:05:34;;;;;;;8.68;6.28;;;19.70;53.90;;;;;;4913868;28;91353;-68
2022/03/23 03:10:43;;;;;;;9.45;6.65;;;19.70;53.90;;;;;;4911282;28;87739;-68
2022/03/23 03:13:09;;;;;;;7.88;6.32;;;19.70;53.90;;;;;;4910028;28;87346;-70
2022/03/23 03:15:35;;;;;;;7.30;5.88;;;19.70;53.80;;;;;;4913600;28;89237;-69
2022/03/23 03:18:01;;;;;;;8.68;7.00;;;19.70;54.00;;;;;;4919168;28;88789;-70
2022/03/23 03:20:27;;;;;;;9.82;6.95;;;19.70;53.90;;;;;;4914045;28;88328;-72
2022/03/23 03:22:53;;;;;;;7.70;6.60;;;19.70;53.80;;;;;;4911061;28;86988;-70
2022/03/23 03:25:22;;;;;;;8.00;6.30;;;19.70;53.80;;;;;;4915349;28;88144;-69
2022/03/23 03:27:48;;;;;;;8.98;6.97;;;19.60;53.80;;;;;;4926447;28;87645;-69
2022/03/23 03:30:15;;;;;;;10.50;6.93;;;19.60;53.70;;;;;;4917643;28;87928;-69
2022/03/23 03:32:41;;;;;;;9.05;7.00;;;19.60;53.60;;;;;;4916567;28;86862;-68
2022/03/23 03:35:08;;;;;;;9.85;6.63;;;19.60;53.60;;;;;;4918443;28;87945;-71
2022/03/23 03:37:34;;;;;;;9.77;6.53;;;19.60;53.50;;;;;;4912904;28;88028;-72
2022/03/23 03:40:00;;;;;;;8.35;6.72;;;19.60;53.50;;;;;;4914131;28;88835;-68
2022/03/23 03:42:26;;;;;;;8.80;6.78;;;19.60;53.50;;;;;;4912854;28;88361;-68
2022/03/23 03:44:52;;;;;;;7.05;5.88;;;19.60;53.60;;;;;;4928551;28;88026;-71
2022/03/23 03:47:19;;;;;;;7.78;6.25;;;19.60;53.50;;;;;;4918064;28;90446;-68
2022/03/23 03:49:46;;;;;;;6.25;5.57;;;19.60;53.50;;;;;;4911101;28;88118;-68
2022/03/23 03:52:14;;;;;;;7.47;6.00;;;19.60;53.50;;;;;;4912286;28;89406;-69
2022/03/23 03:54:40;;;;;;;8.30;6.20;;;19.60;53.60;;;;;;4916622;28;88326;-71
2022/03/23 03:57:06;;;;;;;8.20;6.80;;;19.60;53.50;;;;;;4911038;28;90421;-70
2022/03/23 03:59:31;;;;;;;6.97;6.28;;;19.60;53.50;;;;;;4921089;28;88157;-69
2022/03/23 04:01:57;;;;;;;8.30;6.72;;;19.60;53.40;;;;;;4918577;28;88306;-68
2022/03/23 04:04:23;;;;;;;8.20;6.03;;;19.60;53.50;;;;;;4921117;28;91819;-68
2022/03/23 04:06:51;;;;;;;10.35;6.13;;;19.50;53.40;;;;;;4910600;28;89336;-68
2022/03/23 04:09:16;;;;;;;7.72;6.00;;;19.60;53.40;;;;;;4923267;28;87669;-68
2022/03/23 04:11:42;;;;;;;7.80;6.35;;;19.50;53.40;;;;;;4927268;28;87520;-68
2022/03/23 04:14:08;;;;;;;7.22;6.13;;;19.60;53.50;;;;;;4912841;28;88117;-69
2022/03/23 04:16:33;;;;;;;9.13;6.55;;;19.60;53.50;;;;;;4915529;28;87733;-68
2022/03/23 04:19:00;;;;;;;7.93;6.18;;;19.60;53.50;;;;;;4918355;28;87720;-71
2022/03/23 04:21:28;;;;;;;7.93;5.93;;;19.60;53.30;;;;;;4919620;28;87123;-71
2022/03/23 04:23:53;;;;;;;8.45;6.05;;;19.50;53.30;;;;;;4915124;28;88195;-68
2022/03/23 04:26:19;;;;;;;7.38;5.88;;;19.50;53.40;;;;;;4914819;28;90798;-68
2022/03/23 04:28:45;;;;;;;7.82;6.32;;;19.50;53.40;;;;;;4918517;28;88754;-69
2022/03/23 04:31:11;;;;;;;7.45;6.18;;;19.50;53.90;;;;;;4914221;28;89759;-69
2022/03/23 04:33:36;;;;;;;9.90;6.57;;;19.50;53.40;;;;;;4919370;28;87974;-70
2022/03/23 04:36:03;;;;;;;7.80;6.38;;;19.50;53.40;;;;;;4920971;28;87804;-68
2022/03/23 04:38:28;;;;;;;8.27;6.40;;;19.50;53.40;;;;;;4925091;28;87967;-68
2022/03/23 04:40:54;;;;;;;8.48;5.97;;;19.50;53.30;;;;;;4916334;28;87470;-68
2022/03/23 04:43:20;;;;;;;7.50;6.20;;;19.40;53.30;;;;;;4914298;28;87643;-69
2022/03/23 04:45:45;;;;;;;10.60;7.00;;;19.50;53.40;;;;;;4914443;28;87733;-69
2022/03/23 04:48:11;;;;;;;8.57;6.63;;;19.50;53.30;;;;;;4911969;28;88354;-70
2022/03/23 04:50:37;;;;;;;9.23;6.72;;;19.50;53.40;;;;;;4912579;28;90257;-70
2022/03/23 04:53:03;;;;;;;7.80;6.68;;;19.50;53.20;;;;;;4917271;28;93096;-69
2022/03/23 04:55:29;;;;;;;8.27;6.00;;;19.40;53.40;;;;;;4921219;28;88710;-68
2022/03/23 04:57:55;;;;;;;7.13;6.18;;;19.50;53.30;;;;;;4916055;28;88113;-69
2022/03/23 05:00:21;;;;;;;6.85;5.60;;;19.40;53.30;;;;;;4912571;28;88169;-69
2022/03/23 05:02:50;;;;;;;7.22;5.88;;;19.40;53.30;;;;;;4900513;28;91518;-69
2022/03/23 05:05:16;;;;;;;7.90;6.57;;;19.40;53.10;;;;;;4917637;28;89827;-68
2022/03/23 05:07:43;;;;;;;8.43;6.60;;;19.50;53.20;;;;;;4918817;28;87338;-69
2022/03/23 05:10:12;;;;;;;6.75;6.05;;;19.40;53.10;;;;;;4913461;28;87039;-68
2022/03/23 05:12:40;;;;;;;6.93;6.05;;;19.40;53.00;;;;;;4912237;28;88207;-69
2022/03/23 05:15:08;;;;;;;7.35;6.25;;;19.40;53.10;;;;;;4919807;28;88358;-69
2022/03/23 05:17:35;;;;;;;7.10;6.20;;;19.40;53.10;;;;;;4914856;28;88725;-69
2022/03/23 05:20:01;;;;;;;6.97;6.13;;;19.40;53.10;;;;;;4912759;28;88132;-72
2022/03/23 05:22:27;;;;;;;7.47;6.07;;;19.40;53.10;;;;;;4918583;28;90129;-72
2022/03/23 05:24:53;;;;;;;7.03;6.07;;;19.40;53.30;;;;;;4927259;28;88152;-69
2022/03/23 05:27:19;;;;;;;9.30;6.55;;;19.40;53.10;;;;;;4916277;28;87014;-70
2022/03/23 05:29:47;;;;;;;8.07;6.85;;;19.40;53.10;;;;;;4916944;28;89468;-69
2022/03/23 05:32:16;;;;;;;8.18;6.32;;;19.40;52.90;;;;;;4902037;28;91284;-69
2022/03/23 05:34:51;;;;;;;7.23;6.00;;;19.40;53.20;;;;;;4910513;28;89483;-69
2022/03/23 05:37:17;;;;;;;9.02;6.15;;;19.40;53.30;;;;;;4920412;28;87021;-70
2022/03/23 05:39:44;;;;;;;8.00;6.40;;;19.40;53.70;;;;;;4897438;28;90641;-70
2022/03/23 05:42:10;;;;;;;10.02;7.43;;;19.40;53.70;;;;;;4915004;28;89121;-69
2022/03/23 05:44:36;;;;;;;8.55;6.35;;;19.40;54.00;;;;;;4913108;28;89646;-69
2022/03/23 05:47:03;;;;;;;8.40;6.05;;;19.40;54.00;;;;;;4905543;28;87687;-69
2022/03/23 05:49:28;;;;;;;11.07;6.97;;;19.40;51.70;;;;;;4921600;28;87649;-69
2022/03/23 05:51:54;;;;;;;8.15;7.22;;;19.40;52.90;;;;;;4921705;28;88916;-69
2022/03/23 05:54:22;;;;;;;8.43;6.70;;;19.40;53.90;;;;;;4911841;28;87650;-72
2022/03/23 05:56:48;;;;;;;7.80;6.35;;;19.40;53.90;;;;;;4911447;28;88200;-69
2022/03/23 05:59:14;;;;;;;12.48;6.97;;;19.40;53.70;;;;;;4913293;28;86873;-69
2022/03/23 06:01:40;;;;;;;10.00;6.75;;;19.40;53.80;;;;;;4917071;28;89481;-72
2022/03/23 06:04:05;;;;;;;8.45;6.55;;;19.40;53.80;;;;;;4897908;28;90147;-69
2022/03/23 06:06:31;;;;;;;10.95;7.43;;;19.40;53.90;;;;;;4915162;28;88851;-72
2022/03/23 06:08:56;;;;;;;8.00;6.53;;;19.30;53.70;;;;;;4920692;28;89673;-72
2022/03/23 06:11:22;;;;;;;8.52;6.32;;;19.30;53.70;;;;;;4915988;28;87947;-68
2022/03/23 06:13:49;;;;;;;9.00;7.60;;;19.30;53.50;;;;;;4915257;28;87932;-68
2022/03/23 06:16:15;;;;;;;9.80;6.63;;;19.30;53.60;;;;;;4913858;28;87509;-67
2022/03/23 06:18:41;;;;;;;9.55;6.03;;;19.30;53.60;;;;;;4910036;28;89801;-67
2022/03/23 06:21:07;;;;;;;9.85;6.88;;;19.30;53.60;;;;;;4922400;28;87588;-71
2022/03/23 06:23:33;;;;;;;8.88;6.32;;;19.40;53.80;;;;;;4913945;28;87688;-68
2022/03/23 06:25:59;;;;;;;9.00;6.75;;;19.30;53.60;;;;;;4914348;28;87316;-73
2022/03/23 06:28:25;;;;;;;8.05;6.18;;;19.40;53.70;;;;;;4900331;28;89434;-67
2022/03/23 06:30:51;;;;;;;10.38;7.20;;;19.30;53.70;;;;;;4919938;28;89632;-70
2022/03/23 06:33:20;;;;;;;11.45;6.80;;;19.40;53.40;;;;;;4919365;28;88819;-70
2022/03/23 06:35:46;;;;;;;8.98;7.05;;;19.40;53.50;;;;;;4912104;28;88522;-72
2022/03/23 06:38:13;;;;;;;8.23;6.65;;;19.40;53.20;;;;;;4919306;28;87398;-71
2022/03/23 06:40:39;;;;;;;7.07;6.22;;;19.40;53.40;;;;;;4916003;28;88139;-74
2022/03/23 06:43:04;;;;;;;9.95;7.38;;;19.40;53.40;;;;;;4917598;28;87259;-67
2022/03/23 06:45:30;;;;;;;9.82;6.72;;;19.40;53.00;;;;;;4915699;28;88308;-69
2022/03/23 06:47:56;;;;;;;11.02;6.30;;;19.50;52.20;;;;;;4917139;28;88022;-69
2022/03/23 06:50:22;;;;;;;12.23;6.80;;;19.50;52.60;;;;;;4916796;28;88002;-73
2022/03/23 06:52:48;;;;;;;11.10;6.78;;;19.50;52.60;;;;;;4915622;28;90996;-69
2022/03/23 06:55:17;;;;;;;10.20;6.78;;;19.50;52.60;;;;;;4908777;28;89146;-69
2022/03/23 06:57:42;;;;;;;21.70;8.38;;;19.50;52.90;;;;;;4914521;28;87803;-71
2022/03/23 07:00:13;;;;;;;11.65;6.88;;;19.50;52.50;;;;;;4918000;28;88473;-69
2022/03/23 07:02:49;;;;;;;11.98;7.13;;;19.50;52.90;;;;;;4913756;28;91183;-69
2022/03/23 07:05:17;;;;;;;10.85;7.15;;;19.50;53.00;;;;;;4903723;28;87822;-72
2022/03/23 07:10:30;;;;;;;10.70;7.10;;;19.60;53.80;;;;;;4904316;28;87618;-69
2022/03/23 07:12:57;;;;;;;12.43;8.25;;;19.60;54.00;;;;;;4919409;28;90545;-70
2022/03/23 07:15:23;;;;;;;16.88;8.45;;;19.60;52.40;;;;;;4913618;28;88022;-68
2022/03/23 07:17:49;;;;;;;16.98;8.02;;;19.60;51.90;;;;;;4915412;28;87880;-71
2022/03/23 07:20:15;;;;;;;15.63;8.10;;;19.60;52.70;;;;;;4905212;28;89104;-71
2022/03/23 07:22:40;;;;;;;15.93;7.55;;;19.70;53.80;;;;;;4917456;28;89817;-73
2022/03/23 07:25:07;;;;;;;11.38;6.68;;;19.60;53.70;;;;;;4911372;28;88520;-72
2022/03/23 07:27:32;;;;;;;29.30;7.43;;;19.70;53.90;;;;;;4917012;28;87523;-70
2022/03/23 07:29:58;;;;;;;16.65;7.35;;;19.70;54.10;;;;;;4914759;28;90576;-70
2022/03/23 07:32:24;;;;;;;12.70;7.10;;;19.80;54.60;;;;;;4860883;28;88977;-70
2022/03/23 07:34:50;;;;;;;15.98;7.28;;;19.80;54.80;;;;;;4938427;28;87508;-71
2022/03/23 07:37:16;;;;;;;18.77;7.35;;;19.80;55.00;;;;;;4962740;28;87700;-70
2022/03/23 07:39:42;;;;;;;13.75;6.78;;;19.80;55.00;;;;;;4949663;28;87396;-70
2022/03/23 07:42:08;;;;;;;13.48;6.97;;;19.80;55.60;;;;;;4955748;28;87283;-73
2022/03/23 07:44:34;;;;;;;8.75;5.55;;;19.90;56.20;;;;;;4963640;28;88840;-73
2022/03/23 07:47:00;;;;;;;20.55;6.95;;;19.80;56.20;;;;;;4956173;28;87323;-70
2022/03/23 07:49:25;;;;;;;18.35;6.85;;;19.80;55.90;;;;;;4933760;28;91119;-73
2022/03/23 07:51:51;;;;;;;13.10;8.10;;;19.80;55.80;;;;;;4956902;28;87304;-71
2022/03/23 07:54:17;;;;;;;16.95;8.45;;;19.80;54.60;;;;;;4963251;28;87976;-71
2022/03/23 07:56:43;;;;;;;17.88;7.70;;;19.80;55.30;;;;;;4958571;28;87538;-71
2022/03/23 07:59:09;;;;;;;19.92;9.10;;;19.80;55.30;;;;;;4950291;28;91008;-70
2022/03/23 08:01:35;;;;;;;27.65;10.82;;;19.80;56.10;;;;;;4951611;28;87993;-71
2022/03/23 08:04:01;;;;;;;24.92;10.68;;;19.80;56.70;;;;;;4947571;28;87306;-70
2022/03/23 08:06:28;;;;;;;24.13;10.23;;;19.80;57.20;;;;;;4948787;28;87787;-73
2022/03/23 08:08:54;;;;;;;26.58;10.13;;;19.80;56.70;;;;;;4946796;28;91557;-70
2022/03/23 08:11:21;;;;;;;22.73;10.13;;;19.80;57.30;;;;;;4957521;28;88737;-71
2022/03/23 08:13:47;;;;;;;26.60;10.00;;;19.90;56.90;;;;;;4951257;28;88057;-70
2022/03/23 08:16:13;;;;;;;23.35;10.10;;;19.90;56.70;;;;;;4946531;28;89809;-71
2022/03/23 08:18:38;;;;;;;26.05;9.43;;;19.90;56.60;;;;;;4947856;28;88253;-75
2022/03/23 08:21:05;;;;;;;18.05;10.00;;;19.80;56.50;;;;;;4946958;28;90981;-70
2022/03/23 08:23:31;;;;;;;22.70;9.60;;;19.90;56.70;;;;;;4945587;28;87153;-70
2022/03/23 08:25:57;;;;;;;20.08;10.15;;;19.90;56.60;;;;;;4948837;28;88726;-73
2022/03/23 08:28:23;;;;;;;18.98;9.50;;;19.80;56.60;;;;;;4945881;28;90414;-71
2022/03/23 08:30:48;;;;;;;16.50;9.05;;;19.80;56.30;;;;;;4948542;28;87884;-70
2022/03/23 08:33:15;;;;;;;25.13;9.63;;;19.90;56.50;;;;;;4954525;28;88849;-70
2022/03/23 08:35:40;;;;;;;24.75;10.27;;;19.80;56.30;;;;;;4949364;28;87803;-71
2022/03/23 08:38:06;;;;;;;25.77;12.27;;;19.80;56.00;;;;;;4952459;28;87947;-71
2022/03/23 08:40:33;;;;;;;26.05;10.27;;;19.80;55.30;;;;;;4953762;28;87815;-71
2022/03/23 08:42:59;;;;;;;27.73;10.45;;;19.80;55.40;;;;;;4933359;28;87642;-71
2022/03/23 08:45:26;;;;;;;22.40;10.80;;;19.80;55.60;;;;;;4955207;28;87585;-71
2022/03/23 08:47:51;;;;;;;26.08;11.82;;;19.80;55.20;;;;;;4964356;28;87917;-71
2022/03/23 08:50:18;;;;;;;25.98;11.27;;;19.80;54.80;;;;;;4953838;28;87385;-73
2022/03/23 08:52:44;;;;;;;17.45;8.60;;;19.80;54.60;;;;;;4946265;28;87746;-69
2022/03/23 08:55:19;;;;;;;13.57;7.72;;;19.80;54.90;;;;;;4958853;28;87635;-71
2022/03/23 08:57:45;;;;;;;15.45;7.80;;;19.80;54.70;;;;;;4948995;28;89324;-69
2022/03/23 09:00:14;;;;;;;16.95;7.60;;;19.80;54.70;;;;;;4948897;28;88356;-69
2022/03/23 09:02:40;;;;;;;17.50;8.15;;;19.80;54.40;;;;;;4949566;28;87658;-70
2022/03/23 09:05:12;;;;;;;13.57;8.07;;;19.80;54.20;;;;;;4954904;28;87014;-72
2022/03/23 09:07:39;;;;;;;15.63;8.30;;;19.80;54.20;;;;;;4952483;28;87652;-69
2022/03/23 09:10:09;;;;;;;19.17;9.00;;;19.80;54.10;;;;;;4952337;28;87281;-69
2022/03/23 09:12:36;;;;;;;12.98;7.55;;;19.90;54.00;;;;;;4953163;28;87578;-73
2022/03/23 09:15:03;;;;;;;12.90;6.97;;;19.90;54.20;;;;;;4960765;28;88976;-69
2022/03/23 09:17:29;;;;;;;13.43;7.63;;;19.90;53.90;;;;;;4949785;28;92075;-73
2022/03/23 09:19:55;;;;;;;18.15;9.20;;;19.90;53.60;;;;;;4951640;28;87892;-70
2022/03/23 09:22:22;;;;;;;19.55;9.40;;;19.90;53.60;;;;;;4955930;28;87935;-71
2022/03/23 09:24:47;;;;;;;15.13;8.90;;;19.90;53.80;;;;;;4964648;28;87683;-74
2022/03/23 09:27:14;;;;;;;20.33;9.00;;;19.90;53.70;;;;;;4951245;28;87952;-70
2022/03/23 09:29:40;;;;;;;17.58;9.85;;;19.90;53.60;;;;;;4966103;28;89952;-69
2022/03/23 09:32:09;;;;;;;20.95;9.60;;;19.90;53.20;;;;;;4957682;28;86946;-70
2022/03/23 09:34:36;;;;;;;17.77;10.10;;;19.90;53.60;;;;;;4934350;28;89045;-71
2022/03/23 09:39:50;;;;;;;18.08;9.98;;;19.90;54.00;;;;;;4952082;28;87491;-70
2022/03/23 09:42:19;;;;;;;22.40;10.33;;;19.90;54.10;;;;;;4950101;28;87319;-69
2022/03/23 09:44:50;;;;;;;15.98;9.82;;;19.90;53.10;;;;;;4966510;28;88021;-69
2022/03/23 09:47:15;;;;;;;21.50;10.80;;;19.90;53.60;;;;;;4953130;28;88966;-73
2022/03/23 09:49:42;;;;;;;18.48;10.30;;;19.90;53.70;;;;;;4950431;28;88839;-70
2022/03/23 09:52:07;;;;;;;19.02;9.93;;;19.90;53.80;;;;;;4951440;28;87563;-69
2022/03/23 09:54:33;;;;;;;18.40;10.70;;;19.90;53.80;;;;;;4954942;28;88105;-73
2022/03/23 09:56:59;;;;;;;26.15;10.88;;;19.90;53.90;;;;;;4948455;28;90640;-69
2022/03/23 09:59:24;;;;;;;19.33;9.98;;;19.90;51.50;;;;;;4950727;28;88260;-70
2022/03/23 10:01:50;;;;;;;17.42;9.23;;;19.90;53.90;;;;;;4950328;28;87121;-70
2022/03/23 10:04:34;;;;;;;19.08;10.27;;;19.90;54.20;;;;;;4950893;28;87051;-70
2022/03/23 10:07:11;;;;;;;14.70;9.35;;;19.90;54.40;;;;;;4950669;28;87776;-73
2022/03/23 10:09:52;;;;;;;16.83;10.07;;;19.90;54.20;;;;;;4936809;28;88883;-69
2022/03/23 10:13:11;;;;;;;21.45;9.63;;;19.90;54.30;;;;;;4948296;28;88863;-70
2022/03/23 10:16:12;;;;;;;17.85;9.35;;;19.90;54.40;;;;;;4950434;28;88124;-70
2022/03/23 10:18:55;;;;;;;16.60;9.68;;;19.90;54.50;;;;;;4937019;28;91676;-70
2022/03/23 10:21:26;;;;;;;17.13;8.80;;;19.90;54.80;;;;;;4893138;28;89324;-71
2022/03/23 10:23:57;;;;;;;18.75;9.40;;;19.90;54.70;;;;;;4949617;28;87698;-70
2022/03/23 10:26:23;;;;;;;15.82;9.18;;;19.90;54.80;;;;;;4937696;28;89257;-73
2022/03/23 10:28:49;;;;;;;24.52;8.57;;;19.90;55.10;;;;;;4963727;28;90325;-72
2022/03/23 10:31:21;;;;;;;20.27;9.05;;;19.90;55.00;;;;;;4949530;28;89920;-70
2022/03/23 10:34:09;;;;;;;14.00;8.50;;;19.90;55.20;;;;;;4959940;28;87214;-72
2022/03/23 10:36:51;;;;;;;20.10;9.25;;;19.90;55.10;;;;;;4962134;28;87716;-71
2022/03/23 10:39:19;;;;;;;13.80;8.82;;;19.90;55.30;;;;;;4955702;28;89042;-69
2022/03/23 10:42:09;;;;;;;13.43;8.60;;;19.90;55.50;;;;;;4963038;28;88317;-73
2022/03/23 10:44:35;;;;;;;14.23;8.52;;;19.90;55.40;;;;;;4933303;28;88396;-71
2022/03/23 10:47:04;;;;;;;13.20;8.18;;;19.90;55.60;;;;;;4950525;28;88362;-71
2022/03/23 10:49:32;;;;;;;14.10;8.57;;;20.00;55.80;;;;;;4948903;28;90578;-71
2022/03/23 10:52:17;;;;;;;17.95;9.40;;;20.10;55.60;;;;;;4955552;28;87562;-70
2022/03/23 10:54:58;;;;;;;17.20;8.82;;;20.20;55.30;;;;;;4952166;28;87923;-73
2022/03/23 10:58:02;;;;;;;13.05;7.78;;;20.30;55.20;;;;;;4960003;28;87704;-72
2022/03/23 11:00:38;;;;;;;14.63;7.80;;;20.30;55.10;;;;;;4889489;28;87243;-72
2022/03/23 11:03:08;;;;;;;17.67;8.10;;;20.30;55.10;;;;;;4943866;28;91272;-70
2022/03/23 11:05:37;;;;;;;;;;;20.40;55.10;;;;;;4956463;28;88467;-72
2022/03/23 11:08:14;;;;;;;15.70;7.88;;;20.40;55.10;;;;;;4949319;28;89414;-70
2022/03/23 11:16:52;;;;;;;12.40;7.20;;;20.50;55.20;;;;;;4947894;28;88646;-70
2022/03/23 11:19:19;;;;;;;18.52;7.70;;;20.50;54.70;;;;;;4954172;28;87257;-73
2022/03/23 11:21:57;;;;;;;17.25;8.45;;;20.50;55.10;;;;;;4964942;28;87809;-69
2022/03/23 11:24:25;;;;;;;18.45;7.75;;;20.50;54.90;;;;;;4951909;28;87946;-71
2022/03/23 11:26:51;;;;;;;15.82;7.80;;;20.50;55.00;;;;;;4947986;28;87353;-74
2022/03/23 11:29:18;;;;;;;16.17;8.00;;;20.50;55.10;;;;;;4946025;28;90196;-73
2022/03/23 11:31:48;;;;;;;18.65;7.53;;;20.50;55.20;;;;;;4948070;28;88900;-71
2022/03/23 11:34:19;;;;;;;15.77;8.25;;;20.60;55.40;;;;;;4945308;28;90829;-72
2022/03/23 11:36:47;;;;;;;16.27;8.98;;;20.60;55.50;;;;;;4950680;28;87530;-70
2022/03/23 11:39:15;;;;;;;16.75;8.30;;;20.60;55.90;;;;;;4949486;28;87668;-71
2022/03/23 11:41:43;;;;;;;16.57;7.87;;;20.60;55.50;;;;;;4947859;28;88546;-71
2022/03/23 11:44:13;;;;;;;17.45;8.18;;;20.60;55.30;;;;;;4945393;28;88499;-69
2022/03/23 11:46:39;;;;;;;22.25;7.97;;;20.60;56.00;;;;;;4948048;28;88094;-70
2022/03/23 11:49:44;;;;;;;15.50;7.70;;;20.60;55.70;;;;;;4949744;28;88941;-69
2022/03/23 11:52:33;;;;;;;16.27;7.88;;;20.60;56.10;;;;;;4956215;28;87332;-71
2022/03/23 11:58:21;;;;;;;15.05;7.57;;;20.60;56.30;;;;;;4947703;28;88415;-72
2022/03/23 12:00:50;;;;;;;21.45;8.45;;;20.70;56.50;;;;;;4950061;28;87681;-72
2022/03/23 12:03:41;;;;;;;17.85;8.23;;;20.60;56.80;;;;;;4950292;28;87664;-71
2022/03/23 12:06:23;;;;;;;11.98;7.45;;;20.60;56.30;;;;;;4949426;28;87823;-71
2022/03/23 12:08:51;;;;;;;23.45;9.00;;;20.70;56.50;;;;;;4950019;28;88069;-71
2022/03/23 12:11:44;;;;;;;19.63;8.10;;;20.60;54.50;;;;;;4949441;28;88198;-70
2022/03/23 12:14:36;;;;;;;22.35;8.02;;;20.70;56.10;;;;;;4961984;28;88826;-72
2022/03/23 12:17:15;;;;;;;14.82;7.75;;;20.70;56.50;;;;;;4949664;28;87816;-69
2022/03/23 12:19:58;;;;;;;15.85;8.35;;;20.70;56.60;;;;;;4951170;28;87006;-71
2022/03/23 12:22:33;;;;;;;14.77;7.03;;;20.60;56.80;;;;;;4949505;28;88018;-69
2022/03/23 12:25:28;;;;;;;19.98;7.90;;;20.70;57.00;;;;;;4948754;28;89005;-71
2022/03/23 12:28:23;;;;;;;16.40;7.75;;;20.70;57.20;;;;;;4956599;28;88839;-69
2022/03/23 12:30:57;;;;;;;12.30;7.05;;;20.70;57.20;;;;;;4948526;28;87437;-69
2022/03/23 12:33:27;;;;;;;15.88;7.65;;;20.70;57.20;;;;;;4948198;28;87827;-72
2022/03/23 12:36:02;;;;;;;16.17;7.10;;;20.70;57.30;;;;;;4946864;28;90633;-71
2022/03/23 12:38:29;;;;;;;19.90;7.78;;;20.70;57.40;;;;;;4949311;28;87323;-69
2022/03/23 12:41:02;;;;;;;18.63;7.38;;;20.70;57.20;;;;;;4950047;28;87008;-69
2022/03/23 12:43:36;;;;;;;14.90;6.93;;;20.70;57.20;;;;;;4951744;28;87384;-69
2022/03/23 12:46:03;;;;;;;16.60;7.30;;;20.50;57.60;;;;;;4962352;28;90967;-69
2022/03/23 12:59:49;;;;;;;16.30;6.97;;;20.30;57.50;;;;;;4952295;28;87748;-68
2022/03/23 13:02:18;;;;;;;16.23;6.95;;;20.30;57.50;;;;;;4950832;28;87602;-72
2022/03/23 13:04:43;;;;;;;16.30;6.80;;;20.30;57.60;;;;;;4960904;28;87631;-70
2022/03/23 13:07:27;;;;;;;16.98;7.78;;;20.30;57.80;;;;;;4962334;28;88094;-69
2022/03/23 13:09:56;;;;;;;13.82;7.05;;;20.30;57.70;;;;;;4951809;28;87859;-72
2022/03/23 13:12:29;;;;;;;16.35;7.47;;;20.30;57.60;;;;;;4951325;28;87476;-70
2022/03/23 13:14:55;;;;;;;16.02;7.90;;;20.30;57.50;;;;;;4949745;28;89333;-68
2022/03/23 13:17:21;;;;;;;14.07;6.38;;;20.40;57.50;;;;;;4949674;28;88668;-71
2022/03/23 13:19:47;;;;;;;12.40;7.40;;;20.40;57.20;;;;;;4956706;28;93540;-71
2022/03/23 13:22:12;;;;;;;14.65;7.03;;;20.30;57.20;;;;;;4934708;28;87988;-70
2022/03/23 13:24:38;;;;;;;15.80;7.78;;;20.30;57.40;;;;;;4956013;28;87917;-72